Kimble County Airport Junction US
ICAO: KJCT
IATA: JCT
Category: Medium
Scheduled Services: No

Elevation: 1749 ft
TransAlt. 18000 ft.

Airport Communications:
ASOS:119.275
HOUSTON CNTR:125.75
SAN ANGELO RDO:122.3
CTAF/UNICOM:122.8

KJCT Zoom In..

If you have problems with the map follow the link
https://www.worldairports.se/pages/airport.php?
ICAO=KJCT

Runways:

(A) RW 08 length 2255 ft width 130 ft
---- / hdg 84

(B) RW 17 length 5004 ft width 75 ft
---- / hdg 172

(C) RW 26 length 2255 ft width 130 ft
---- / hdg 264

(D) RW 35 length 5004 ft width 75 ft
---- / hdg 352

Location; KJCT
Day. 20 / Time. 20.51 Zulu
* Altimeter: 29.91
* Temperature: 18° c. 64.4°f.
* Wind from: 250° Speed 08 kn with Gusts up to 16 kn.
Dewpoint: -06° c.
Visibility: 10 Statute Miles.
Clouds: Clear (automated report).

KJCT 202051Z AUTO 25008G16KT 10SM CLR 18/M06 A2991 RMK AO2 SLP109 T01781061 56034


Wind From 250°
Speed 08 kn.

 
 
jpsmedia.com for Web Design worldairports.se 2019   terms of use